createdAt,value
2019-04-06T00:00:24.601Z,76.81
2019-04-06T00:03:29.108Z,76.71
2019-04-06T00:06:33.859Z,76.82
2019-04-06T00:09:38.292Z,77.20
2019-04-06T00:12:42.725Z,77.14
2019-04-06T00:15:47.437Z,77.25
2019-04-06T00:18:52.161Z,77.27
2019-04-06T00:21:56.602Z,77.27
2019-04-06T00:25:01.319Z,77.23
2019-04-06T00:28:06.055Z,77.04
2019-04-06T00:31:12.120Z,77.28
2019-04-06T00:34:16.562Z,77.41
2019-04-06T00:37:21.004Z,76.62
2019-04-06T00:40:25.709Z,76.81
2019-04-06T00:43:30.150Z,76.62
2019-04-06T00:46:34.586Z,76.23
2019-04-06T00:49:39.021Z,75.68
2019-04-06T00:52:43.462Z,75.97
2019-04-06T00:55:55.660Z,76.14
2019-04-06T00:58:54.381Z,76.66
2019-04-06T01:01:58.871Z,76.98
2019-04-06T01:05:03.795Z,76.18
2019-04-06T01:08:08.672Z,76.22
2019-04-06T01:11:13.099Z,76.99
2019-04-06T01:14:17.545Z,76.20
2019-04-06T01:17:22.701Z,76.53
2019-04-06T01:20:27.393Z,76.34
2019-04-06T01:23:31.835Z,76.41
2019-04-06T01:26:36.544Z,76.59
2019-04-06T01:29:41.270Z,76.92
2019-04-06T01:32:45.716Z,77.52
2019-04-06T01:35:50.431Z,77.88
2019-04-06T01:38:54.869Z,78.06
2019-04-06T01:41:59.309Z,78.20
2019-04-06T01:45:04.925Z,79.51
2019-04-06T01:48:09.372Z,79.57
2019-04-06T01:51:13.809Z,79.14
2019-04-06T01:54:18.314Z,79.58
2019-04-06T01:57:23.107Z,78.21
2019-04-06T02:00:27.867Z,76.69
2019-04-06T02:03:32.595Z,76.16
2019-04-06T02:06:37.328Z,76.01
2019-04-06T02:09:42.057Z,76.27
2019-04-06T02:12:46.499Z,76.73
2019-04-06T02:15:50.980Z,77.04
2019-04-06T02:18:55.374Z,77.45
2019-04-06T02:21:59.808Z,77.59
2019-04-06T02:25:05.385Z,77.49
2019-04-06T02:28:09.831Z,77.09
2019-04-06T02:31:15.906Z,76.80
2019-04-06T02:34:27.829Z,76.68
2019-04-06T02:37:33.903Z,76.78
2019-04-06T02:40:39.984Z,77.15
2019-04-06T02:43:44.749Z,77.74
2019-04-06T02:46:49.195Z,77.43
2019-04-06T02:49:53.617Z,77.46
2019-04-06T02:52:58.046Z,77.25
2019-04-06T02:56:02.753Z,77.38
2019-04-06T02:59:07.485Z,77.13
2019-04-06T03:02:11.916Z,77.56
2019-04-06T03:05:16.636Z,77.02
2019-04-06T03:08:21.069Z,76.74
2019-04-06T03:11:25.516Z,77.25
2019-04-06T03:14:29.954Z,77.04
2019-04-06T03:17:34.392Z,76.93
2019-04-06T03:20:39.172Z,77.54
2019-04-06T03:23:51.364Z,76.61
2019-04-06T03:27:00.657Z,76.69
2019-04-06T03:29:58.618Z,76.88
2019-04-06T03:33:02.721Z,77.26
2019-04-06T03:36:07.545Z,77.03
2019-04-06T03:39:12.033Z,76.94
2019-04-06T03:42:16.480Z,77.01
2019-04-06T03:45:20.917Z,77.26
2019-04-06T03:48:25.827Z,76.45
2019-04-06T03:51:30.281Z,76.46
2019-04-06T03:54:35.090Z,76.49
2019-04-06T03:57:39.820Z,76.77
2019-04-06T04:00:45.101Z,76.50
2019-04-06T04:03:49.603Z,76.51
2019-04-06T04:06:54.046Z,76.44
2019-04-06T04:09:58.494Z,76.79
2019-04-06T04:13:02.923Z,76.55
2019-04-06T04:16:07.695Z,76.83
2019-04-06T04:19:12.123Z,76.77
2019-04-06T04:22:17.049Z,76.08
2019-04-06T04:25:21.890Z,76.27
2019-04-06T04:28:26.344Z,76.72
2019-04-06T04:31:30.765Z,77.63
2019-04-06T04:34:35.469Z,77.32
2019-04-06T04:37:39.918Z,77.04
2019-04-06T04:40:44.383Z,76.89
2019-04-06T04:43:49.160Z,75.93
2019-04-06T04:46:53.581Z,76.06
2019-04-06T04:49:58.313Z,76.35
2019-04-06T04:53:02.732Z,77.38
2019-04-06T04:56:07.534Z,77.22
2019-04-06T04:59:12.011Z,76.16
2019-04-06T05:02:16.712Z,76.54
2019-04-06T05:05:21.172Z,76.97
2019-04-06T05:08:25.621Z,75.95
2019-04-06T05:11:30.045Z,76.75
2019-04-06T05:15:04.562Z,76.47
2019-04-06T05:18:09.819Z,76.94
2019-04-06T05:21:14.335Z,76.13
2019-04-06T05:24:18.763Z,76.50
2019-04-06T05:27:23.846Z,76.79
2019-04-06T05:30:28.282Z,78.78
2019-04-06T05:33:32.995Z,78.49
2019-04-06T05:36:37.733Z,77.68
2019-04-06T05:39:42.160Z,77.00
2019-04-06T05:42:46.763Z,76.88
2019-04-06T05:45:51.231Z,77.10
2019-04-06T05:48:55.673Z,77.40
2019-04-06T05:52:00.462Z,77.72
2019-04-06T05:55:06.429Z,77.81
2019-04-06T05:58:11.142Z,78.62
2019-04-06T06:01:15.818Z,79.26
2019-04-06T06:04:20.249Z,79.55
2019-04-06T06:07:24.686Z,79.54
2019-04-06T06:10:29.122Z,79.47
2019-04-06T06:13:33.562Z,79.53
2019-04-06T06:16:38.313Z,78.97
2019-04-06T06:19:42.740Z,78.43
2019-04-06T06:22:47.187Z,77.61
2019-04-06T06:25:51.620Z,76.46
2019-04-06T06:28:56.303Z,75.08
2019-04-06T06:32:01.036Z,73.87
2019-04-06T06:35:07.567Z,71.82
2019-04-06T06:38:12.340Z,71.74
2019-04-06T06:41:17.068Z,69.60
2019-04-06T06:44:21.506Z,66.84
2019-04-06T06:47:25.956Z,63.87
2019-04-06T06:50:30.398Z,60.54
2019-04-06T06:53:34.850Z,58.64
2019-04-06T06:56:39.313Z,58.20
2019-04-06T06:59:43.752Z,58.09
2019-04-06T07:02:48.204Z,57.78
2019-04-06T07:05:52.638Z,59.46
2019-04-06T07:08:57.393Z,61.66
2019-04-06T07:12:01.988Z,66.22
2019-04-06T07:15:09.211Z,66.41
2019-04-06T07:18:14.123Z,68.73
2019-04-06T07:21:18.649Z,69.14
2019-04-06T07:24:23.087Z,70.38
2019-04-06T07:27:27.528Z,71.06
2019-04-06T07:30:32.269Z,72.37
2019-04-06T07:33:36.755Z,73.01
2019-04-06T07:36:41.136Z,74.11
2019-04-06T07:39:45.689Z,75.72
2019-04-06T07:42:50.105Z,73.93
2019-04-06T07:45:54.536Z,74.24
2019-04-06T07:49:07.919Z,73.31
2019-04-06T07:52:05.683Z,73.28
2019-04-06T07:55:10.546Z,72.26
2019-04-06T07:58:15.441Z,71.93
2019-04-06T08:01:19.877Z,71.79
2019-04-06T08:04:24.331Z,71.91
2019-04-06T08:07:29.007Z,72.03
2019-04-06T08:10:33.711Z,73.02
2019-04-06T08:13:38.269Z,73.52
2019-04-06T08:16:42.727Z,73.84
2019-04-06T08:19:47.339Z,72.39
2019-04-06T08:22:51.793Z,73.45
2019-04-06T08:25:56.421Z,72.42
2019-04-06T08:29:02.377Z,72.45
2019-04-06T08:32:07.296Z,71.24
2019-04-06T08:35:23.941Z,70.74
2019-04-06T08:38:19.394Z,71.01
2019-04-06T08:41:23.830Z,69.64
2019-04-06T08:44:28.277Z,69.62
2019-04-06T08:47:32.975Z,67.77
2019-04-06T08:50:37.422Z,67.05
2019-04-06T08:53:42.009Z,66.81
2019-04-06T08:56:46.577Z,66.62
2019-04-06T08:59:51.071Z,67.08
2019-04-06T09:02:55.735Z,68.10
2019-04-06T09:06:00.188Z,66.71
2019-04-06T09:09:07.417Z,65.56
2019-04-06T09:12:12.153Z,65.23
2019-04-06T09:15:18.539Z,64.92
2019-04-06T09:18:23.254Z,67.32
2019-04-06T09:21:27.693Z,65.87
2019-04-06T09:24:32.257Z,64.87
2019-04-06T09:27:36.974Z,64.58
2019-04-06T09:30:41.711Z,64.97
2019-04-06T09:33:46.120Z,65.01
2019-04-06T09:36:50.768Z,64.66
2019-04-06T09:39:55.292Z,66.99
2019-04-06T09:43:00.081Z,66.12
2019-04-06T09:46:04.602Z,65.38
2019-04-06T09:49:10.707Z,66.08
2019-04-06T09:52:17.620Z,67.32
2019-04-06T09:55:29.685Z,66.20
2019-04-06T09:58:52.112Z,66.13
2019-04-06T10:02:14.061Z,64.91
2019-04-06T10:05:22.894Z,64.94
2019-04-06T10:08:43.746Z,63.30
2019-04-06T10:11:55.832Z,60.45
2019-04-06T10:15:14.015Z,60.68
2019-04-06T10:18:22.850Z,60.90
2019-04-06T10:21:34.660Z,59.77
2019-04-06T10:24:40.816Z,57.01
2019-04-06T10:27:47.175Z,56.67
2019-04-06T10:31:03.411Z,56.08
2019-04-06T10:34:09.475Z,56.22
2019-04-06T10:37:28.449Z,56.02
2019-04-06T10:40:40.853Z,55.31
2019-04-06T10:43:48.064Z,53.60
2019-04-06T10:47:02.888Z,55.49
2019-04-06T10:50:18.049Z,52.79
2019-04-06T10:53:30.495Z,51.67
2019-04-06T10:56:43.302Z,50.09
2019-04-06T11:00:01.035Z,52.52
2019-04-06T11:03:00.520Z,55.42
2019-04-06T11:06:22.964Z,55.84
2019-04-06T11:09:34.901Z,57.07
2019-04-06T11:12:44.833Z,58.37
2019-04-06T11:16:06.789Z,59.84
2019-04-06T11:19:30.851Z,60.02
2019-04-06T11:22:52.983Z,59.89
2019-04-06T11:25:59.968Z,59.62
2019-04-06T11:29:07.358Z,60.54
2019-04-06T11:32:29.513Z,61.50
2019-04-06T11:35:47.738Z,62.19
2019-04-06T11:38:54.102Z,60.35
2019-04-06T11:42:02.594Z,61.75
2019-04-06T11:45:16.158Z,60.35
2019-04-06T11:48:37.470Z,60.09
2019-04-06T11:51:46.642Z,60.23
2019-04-06T11:54:52.870Z,58.99
2019-04-06T11:58:10.847Z,59.57
2019-04-06T12:01:23.103Z,60.06
2019-04-06T12:04:41.034Z,59.93
2019-04-06T12:07:53.328Z,58.47
2019-04-06T12:11:02.229Z,59.27
2019-04-06T12:14:24.169Z,60.05
2019-04-06T12:17:39.378Z,58.77
2019-04-06T12:20:58.622Z,58.73
2019-04-06T12:24:07.203Z,60.46
2019-04-06T12:27:16.002Z,59.42
2019-04-06T12:30:36.595Z,59.74
2019-04-06T12:33:42.159Z,58.65
2019-04-06T12:37:03.570Z,59.28
2019-04-06T12:40:10.277Z,59.13
2019-04-06T12:43:19.128Z,60.26
2019-04-06T12:46:39.991Z,58.77
2019-04-06T12:49:53.178Z,59.18
2019-04-06T12:53:02.496Z,59.92
2019-04-06T12:56:20.742Z,58.24
2019-04-06T12:59:29.525Z,58.55
2019-04-06T13:02:36.784Z,60.29
2019-04-06T13:06:01.050Z,60.02
2019-04-06T13:09:24.862Z,59.57
2019-04-06T13:12:48.663Z,58.60
2019-04-06T13:16:01.007Z,58.71
2019-04-06T13:19:07.098Z,59.50
2019-04-06T13:22:29.330Z,56.39
2019-04-06T13:25:41.426Z,56.90
2019-04-06T13:28:50.312Z,57.54
2019-04-06T13:32:02.878Z,57.84
2019-04-06T13:35:24.240Z,56.79
2019-04-06T13:38:31.298Z,55.31
2019-04-06T13:41:53.219Z,54.61
2019-04-06T13:45:08.476Z,53.00
2019-04-06T13:48:31.201Z,54.01
2019-04-06T13:51:40.442Z,53.91
2019-04-06T13:55:03.174Z,51.99
2019-04-06T13:58:09.588Z,54.29
2019-04-06T14:01:32.034Z,54.26
2019-04-06T14:04:39.369Z,55.23
2019-04-06T14:07:46.496Z,54.52
2019-04-06T14:10:53.343Z,53.88
2019-04-06T14:14:02.524Z,54.70
2019-04-06T14:17:27.211Z,53.22
2019-04-06T14:20:39.227Z,54.18
2019-04-06T14:23:54.622Z,53.32
2019-04-06T14:27:03.187Z,53.12
2019-04-06T14:30:26.079Z,53.58
2019-04-06T14:33:32.976Z,53.46
2019-04-06T14:36:40.154Z,52.15
2019-04-06T14:39:49.557Z,51.85
2019-04-06T14:43:13.571Z,50.50
2019-04-06T14:46:35.970Z,51.62
2019-04-06T14:49:51.303Z,49.76
2019-04-06T14:53:13.550Z,47.49
2019-04-06T14:56:32.290Z,47.86
2019-04-06T14:59:38.917Z,47.62
2019-04-06T15:02:50.844Z,49.04
2019-04-06T15:05:58.251Z,48.75
2019-04-06T15:09:22.650Z,48.66
2019-04-06T15:12:32.413Z,48.50
2019-04-06T15:15:50.271Z,46.49
2019-04-06T15:19:06.856Z,46.94
2019-04-06T15:22:18.693Z,48.39
2019-04-06T15:25:30.646Z,48.53
2019-04-06T15:28:49.009Z,49.28
2019-04-06T15:31:57.857Z,49.65
2019-04-06T15:35:02.862Z,49.54
2019-04-06T15:38:15.551Z,49.41
2019-04-06T15:41:19.789Z,51.32
2019-04-06T15:44:31.791Z,51.83
2019-04-06T15:47:43.787Z,51.06
2019-04-06T15:50:52.782Z,51.80
2019-04-06T15:54:13.864Z,51.42
2019-04-06T15:57:19.957Z,51.87
2019-04-06T16:00:28.554Z,51.88
2019-04-06T16:03:38.226Z,52.24
2019-04-06T16:06:46.879Z,51.95
2019-04-06T16:09:55.645Z,52.44
2019-04-06T16:13:19.767Z,52.83
2019-04-06T16:16:26.187Z,53.11
2019-04-06T16:19:32.314Z,53.19
2019-04-06T16:22:37.177Z,54.16
2019-04-06T16:25:49.794Z,53.93
2019-04-06T16:28:58.700Z,53.61
2019-04-06T16:32:32.427Z,55.12
2019-04-06T16:35:31.442Z,54.99
2019-04-06T16:38:40.257Z,55.21
2019-04-06T16:41:52.776Z,54.32
2019-04-06T16:44:58.913Z,53.83
2019-04-06T16:48:21.099Z,54.06
2019-04-06T16:51:38.751Z,54.87
2019-04-06T16:55:01.163Z,55.45
2019-04-06T16:58:22.761Z,53.84
2019-04-06T17:01:34.519Z,54.20
2019-04-06T17:04:49.639Z,55.20
2019-04-06T17:08:12.805Z,54.21
2019-04-06T17:11:35.981Z,54.57
2019-04-06T17:14:58.480Z,54.10
2019-04-06T17:18:07.465Z,56.19
2019-04-06T17:21:29.133Z,58.20
2019-04-06T17:24:41.404Z,60.01
2019-04-06T17:28:03.558Z,60.77
2019-04-06T17:31:21.769Z,61.50
2019-04-06T17:34:29.168Z,62.28
2019-04-06T17:37:38.132Z,63.00
2019-04-06T17:40:50.217Z,63.68
2019-04-06T17:44:05.922Z,64.23
2019-04-06T17:47:27.879Z,64.20
2019-04-06T17:50:42.938Z,64.61
2019-04-06T17:53:47.227Z,64.89
2019-04-06T17:56:59.275Z,65.21
2019-04-06T18:00:26.303Z,65.37
2019-04-06T18:03:48.795Z,65.44
2019-04-06T18:07:08.155Z,65.77
2019-04-06T18:10:17.359Z,66.38
2019-04-06T18:13:26.432Z,67.07
2019-04-06T18:16:32.750Z,67.75
2019-04-06T18:19:37.467Z,67.62
2019-04-06T18:22:41.967Z,67.82
2019-04-06T18:25:46.368Z,67.74
2019-04-06T18:28:50.914Z,67.82
2019-04-06T18:31:59.641Z,68.21
2019-04-06T18:35:04.948Z,68.26
2019-04-06T18:38:09.541Z,68.19
2019-04-06T18:41:13.978Z,68.49
2019-04-06T18:44:18.425Z,68.51
2019-04-06T18:47:23.159Z,68.98
2019-04-06T18:50:34.173Z,69.24
2019-04-06T18:53:34.323Z,69.16
2019-04-06T18:56:39.113Z,69.19
2019-04-06T18:59:43.582Z,69.29
2019-04-06T19:02:48.033Z,69.69
2019-04-06T19:05:52.470Z,69.64
2019-04-06T19:08:57.255Z,69.66
2019-04-06T19:12:02.016Z,69.84
2019-04-06T19:15:09.056Z,69.52
2019-04-06T19:18:13.590Z,70.10
2019-04-06T19:21:18.048Z,70.01
2019-04-06T19:24:22.487Z,70.33
2019-04-06T19:27:27.354Z,70.32
2019-04-06T19:30:31.880Z,70.25
2019-04-06T19:33:36.448Z,70.91
2019-04-06T19:36:40.955Z,70.84
2019-04-06T19:39:45.403Z,70.80
2019-04-06T19:42:49.973Z,71.19
2019-04-06T19:45:54.471Z,71.34
2019-04-06T19:48:58.926Z,71.10
2019-04-06T19:52:03.957Z,71.58
2019-04-06T19:55:09.100Z,71.22
2019-04-06T19:58:13.714Z,71.52
2019-04-06T20:01:18.272Z,71.68
2019-04-06T20:04:22.768Z,72.33
2019-04-06T20:07:27.525Z,72.51
2019-04-06T20:10:32.261Z,72.62
2019-04-06T20:13:37.107Z,72.69
2019-04-06T20:16:41.946Z,73.13
2019-04-06T20:19:46.464Z,72.44
2019-04-06T20:22:50.905Z,72.59
2019-04-06T20:25:55.625Z,72.95
2019-04-06T20:29:00.064Z,72.25
2019-04-06T20:32:04.502Z,72.29
2019-04-06T20:35:09.499Z,72.13
2019-04-06T20:38:14.042Z,71.97
2019-04-06T20:41:19.001Z,72.69
2019-04-06T20:44:23.540Z,73.18
2019-04-06T20:47:27.964Z,72.21
2019-04-06T20:50:33.122Z,72.39
2019-04-06T20:53:38.086Z,72.75
2019-04-06T20:56:53.302Z,73.89
2019-04-06T20:59:49.003Z,73.94
2019-04-06T21:02:53.738Z,73.97
2019-04-06T21:05:58.554Z,73.10
2019-04-06T21:09:04.521Z,73.55
2019-04-06T21:12:08.951Z,73.89
2019-04-06T21:15:18.922Z,74.13
2019-04-06T21:18:19.705Z,73.51
2019-04-06T21:21:24.800Z,74.13
2019-04-06T21:24:29.704Z,74.50
2019-04-06T21:27:34.185Z,73.97
2019-04-06T21:30:39.049Z,73.87
2019-04-06T21:33:45.857Z,73.85
2019-04-06T21:36:51.051Z,74.07
2019-04-06T21:39:56.100Z,73.67
2019-04-06T21:43:01.013Z,73.64
2019-04-06T21:46:06.702Z,73.81
2019-04-06T21:49:11.308Z,73.88
2019-04-06T21:52:15.804Z,74.47
2019-04-06T21:55:20.709Z,74.37
2019-04-06T21:58:25.573Z,74.30
2019-04-06T22:01:31.029Z,74.50
2019-04-06T22:04:36.265Z,75.02
2019-04-06T22:07:48.678Z,74.71
2019-04-06T22:10:47.456Z,73.75
2019-04-06T22:13:52.197Z,74.37
2019-04-06T22:16:57.239Z,73.44
2019-04-06T22:20:01.962Z,73.26
2019-04-06T22:23:06.861Z,74.68
2019-04-06T22:26:11.589Z,75.46
2019-04-06T22:29:16.321Z,74.81
2019-04-06T22:32:20.915Z,74.25
2019-04-06T22:35:25.747Z,74.21
2019-04-06T22:38:30.792Z,74.81
2019-04-06T22:41:35.458Z,74.80
2019-04-06T22:44:40.283Z,74.44
2019-04-06T22:47:45.187Z,74.94
2019-04-06T22:50:50.045Z,74.66
2019-04-06T22:53:54.585Z,74.16
2019-04-06T22:56:59.962Z,74.32
2019-04-06T23:00:08.039Z,74.15
2019-04-06T23:03:30.785Z,74.42
2019-04-06T23:06:37.256Z,74.79
2019-04-06T23:09:41.759Z,75.73
2019-04-06T23:12:46.206Z,74.93
2019-04-06T23:15:50.888Z,74.96
2019-04-06T23:18:56.072Z,73.87
2019-04-06T23:22:01.109Z,74.04
2019-04-06T23:25:06.372Z,74.39
2019-04-06T23:28:10.799Z,73.79
2019-04-06T23:31:15.513Z,74.45
2019-04-06T23:34:20.338Z,74.97
2019-04-06T23:37:25.078Z,74.12
2019-04-06T23:40:29.531Z,74.52
2019-04-06T23:43:34.817Z,75.06
2019-04-06T23:46:39.522Z,75.58
2019-04-06T23:49:44.060Z,75.41
2019-04-06T23:52:48.502Z,75.25
2019-04-06T23:55:52.945Z,75.00
2019-04-06T23:58:57.378Z,75.60
